createdAt,value
2018-09-19T00:00:58.651Z,6.12
2018-09-19T00:03:26.928Z,6.40
2018-09-19T00:05:55.350Z,6.72
2018-09-19T00:08:24.628Z,6.65
2018-09-19T00:10:52.913Z,6.62
2018-09-19T00:13:21.308Z,6.40
2018-09-19T00:15:49.558Z,6.33
2018-09-19T00:18:17.826Z,6.50
2018-09-19T00:20:46.101Z,6.00
2018-09-19T00:23:14.368Z,6.40
2018-09-19T00:25:42.601Z,6.40
2018-09-19T00:28:10.880Z,6.03
2018-09-19T00:30:39.153Z,5.90
2018-09-19T00:33:07.399Z,5.80
2018-09-19T00:35:35.674Z,5.22
2018-09-19T00:38:03.910Z,6.28
2018-09-19T00:40:32.150Z,5.70
2018-09-19T00:43:00.448Z,5.50
2018-09-19T00:45:28.723Z,5.30
2018-09-19T00:47:56.963Z,5.28
2018-09-19T00:50:25.204Z,5.25
2018-09-19T00:52:54.331Z,6.22
2018-09-19T00:55:22.572Z,4.47
2018-09-19T00:57:50.825Z,4.58
2018-09-19T01:00:19.162Z,5.20
2018-09-19T01:02:47.488Z,5.40
2018-09-19T01:05:15.748Z,5.72
2018-09-19T01:07:44.103Z,5.50
2018-09-19T01:10:12.425Z,6.25
2018-09-19T01:12:40.762Z,6.22
2018-09-19T01:15:09.051Z,6.92
2018-09-19T01:17:37.346Z,6.72
2018-09-19T01:20:05.707Z,6.45
2018-09-19T01:22:33.975Z,6.30
2018-09-19T01:25:02.239Z,6.33
2018-09-19T01:27:30.514Z,5.67
2018-09-19T01:29:58.763Z,5.80
2018-09-19T01:32:27.047Z,5.75
2018-09-19T01:34:55.355Z,5.58
2018-09-19T01:37:24.150Z,5.25
2018-09-19T01:39:52.602Z,4.60
2018-09-19T01:42:20.854Z,5.67
2018-09-19T01:44:49.091Z,4.10
2018-09-19T01:47:17.406Z,4.30
2018-09-19T01:49:46.795Z,4.47
2018-09-19T01:52:15.106Z,4.67
2018-09-19T01:54:43.334Z,5.05
2018-09-19T01:57:11.634Z,4.80
2018-09-19T01:59:39.916Z,4.70
2018-09-19T02:02:08.154Z,4.92
2018-09-19T02:04:36.390Z,5.15
2018-09-19T02:07:04.746Z,4.80
2018-09-19T02:09:32.985Z,5.37
2018-09-19T02:12:01.259Z,6.22
2018-09-19T02:14:29.540Z,5.33
2018-09-19T02:16:57.779Z,5.22
2018-09-19T02:19:26.076Z,5.33
2018-09-19T02:21:54.374Z,5.70
2018-09-19T02:24:22.608Z,6.00
2018-09-19T02:26:50.995Z,6.08
2018-09-19T02:29:19.285Z,6.47
2018-09-19T02:31:47.637Z,6.25
2018-09-19T02:34:17.037Z,6.22
2018-09-19T02:36:45.355Z,6.58
2018-09-19T02:39:13.587Z,6.92
2018-09-19T02:41:41.879Z,6.62
2018-09-19T02:44:10.180Z,6.78
2018-09-19T02:46:38.500Z,6.03
2018-09-19T02:49:06.753Z,5.92
2018-09-19T02:51:35.025Z,6.08
2018-09-19T02:54:03.336Z,6.70
2018-09-19T02:56:31.617Z,7.05
2018-09-19T02:58:59.873Z,5.35
2018-09-19T03:01:28.161Z,5.47
2018-09-19T03:03:56.466Z,5.75
2018-09-19T03:06:24.765Z,6.27
2018-09-19T03:08:53.046Z,6.15
2018-09-19T03:11:21.330Z,5.80
2018-09-19T03:13:49.550Z,6.20
2018-09-19T03:16:17.813Z,6.50
2018-09-19T03:18:47.134Z,6.33
2018-09-19T03:21:15.407Z,6.58
2018-09-19T03:23:43.651Z,6.60
2018-09-19T03:26:11.891Z,7.37
2018-09-19T03:28:40.269Z,7.05
2018-09-19T03:31:08.537Z,6.95
2018-09-19T03:33:36.782Z,8.35
2018-09-19T03:36:05.054Z,9.10
2018-09-19T03:38:33.325Z,9.93
2018-09-19T03:41:01.575Z,11.65
2018-09-19T03:43:29.819Z,11.05
2018-09-19T03:45:58.099Z,12.97
2018-09-19T03:48:26.505Z,12.93
2018-09-19T03:50:54.843Z,13.45
2018-09-19T03:53:23.079Z,13.53
2018-09-19T03:55:51.369Z,15.38
2018-09-19T03:58:19.781Z,13.70
2018-09-19T04:00:48.078Z,14.35
2018-09-19T04:03:17.304Z,13.68
2018-09-19T04:05:45.538Z,15.72
2018-09-19T04:08:13.774Z,14.70
2018-09-19T04:10:42.054Z,15.45
2018-09-19T04:13:10.336Z,15.57
2018-09-19T04:15:38.639Z,14.95
2018-09-19T04:18:06.866Z,16.93
2018-09-19T04:20:35.154Z,15.18
2018-09-19T04:23:03.430Z,15.05
2018-09-19T04:25:31.707Z,15.48
2018-09-19T04:27:59.951Z,16.83
2018-09-19T04:30:28.228Z,17.07
2018-09-19T04:32:56.506Z,18.60
2018-09-19T04:35:24.754Z,18.77
2018-09-19T04:37:53.027Z,19.40
2018-09-19T04:40:21.261Z,19.40
2018-09-19T04:42:49.526Z,19.40
2018-09-19T04:45:17.930Z,18.77
2018-09-19T04:47:46.640Z,19.87
2018-09-19T04:50:14.907Z,19.83
2018-09-19T04:52:43.193Z,18.97
2018-09-19T04:55:11.428Z,20.30
2018-09-19T04:57:39.690Z,20.40
2018-09-19T05:00:07.991Z,20.02
2018-09-19T05:02:36.263Z,19.73
2018-09-19T05:05:04.696Z,19.60
2018-09-19T05:07:32.988Z,22.30
2018-09-19T05:10:01.258Z,19.87
2018-09-19T05:12:29.866Z,19.98
2018-09-19T05:14:58.974Z,21.73
2018-09-19T05:17:27.291Z,22.07
2018-09-19T05:19:55.678Z,21.95
2018-09-19T05:22:23.923Z,22.40
2018-09-19T05:24:52.167Z,21.27
2018-09-19T05:27:20.507Z,23.07
2018-09-19T05:29:48.741Z,24.27
2018-09-19T05:32:17.457Z,23.90
2018-09-19T05:34:45.738Z,23.07
2018-09-19T05:37:14.618Z,22.67
2018-09-19T05:39:42.878Z,24.77
2018-09-19T05:42:11.186Z,25.50
2018-09-19T05:44:40.675Z,26.70
2018-09-19T05:47:08.939Z,24.47
2018-09-19T05:49:37.178Z,23.80
2018-09-19T05:52:05.490Z,26.15
2018-09-19T05:54:33.786Z,26.43
2018-09-19T05:57:02.040Z,30.90
2018-09-19T05:59:30.339Z,26.65
2018-09-19T06:01:58.598Z,25.45
2018-09-19T06:04:26.846Z,24.65
2018-09-19T06:06:55.120Z,25.02
2018-09-19T06:09:23.574Z,24.87
2018-09-19T06:11:51.911Z,24.37
2018-09-19T06:14:20.189Z,26.23
2018-09-19T06:16:48.810Z,24.82
2018-09-19T06:19:17.099Z,24.57
2018-09-19T06:21:45.374Z,25.90
2018-09-19T06:24:13.616Z,25.12
2018-09-19T06:26:41.899Z,23.33
2018-09-19T06:29:10.132Z,24.18
2018-09-19T06:31:38.702Z,22.02
2018-09-19T06:34:06.966Z,22.70
2018-09-19T06:36:35.198Z,21.73
2018-09-19T06:39:04.438Z,20.68
2018-09-19T06:41:32.675Z,20.48
2018-09-19T06:44:00.946Z,18.40
2018-09-19T06:46:29.303Z,19.77
2018-09-19T06:48:57.551Z,19.00
2018-09-19T06:51:25.807Z,18.07
2018-09-19T06:53:54.177Z,14.03
2018-09-19T06:56:22.467Z,14.25
2018-09-19T06:58:50.706Z,12.82
2018-09-19T07:01:19.081Z,14.47
2018-09-19T07:03:47.426Z,13.78
2018-09-19T07:06:15.714Z,13.53
2018-09-19T07:08:43.994Z,13.80
2018-09-19T07:11:12.323Z,13.18
2018-09-19T07:13:40.622Z,14.18
2018-09-19T07:16:09.905Z,12.68
2018-09-19T07:18:38.209Z,10.70
2018-09-19T07:21:06.515Z,9.25
2018-09-19T07:23:34.797Z,9.80
2018-09-19T07:26:03.076Z,10.00
2018-09-19T07:28:31.360Z,8.53
2018-09-19T07:30:59.629Z,8.95
2018-09-19T07:33:27.957Z,8.13
2018-09-19T07:35:56.250Z,9.98
2018-09-19T07:38:25.207Z,12.05
2018-09-19T07:40:53.667Z,10.13
2018-09-19T07:43:22.089Z,8.80
2018-09-19T07:45:50.347Z,8.60
2018-09-19T07:48:18.599Z,8.50
2018-09-19T07:50:46.989Z,8.90
2018-09-19T07:53:15.266Z,9.03
2018-09-19T07:55:43.550Z,7.42
2018-09-19T07:58:12.941Z,9.63
2018-09-19T08:00:41.760Z,10.28
2018-09-19T08:03:10.283Z,10.68
2018-09-19T08:05:38.960Z,10.13
2018-09-19T08:08:07.872Z,9.13
2018-09-19T08:10:36.489Z,8.85
2018-09-19T08:13:05.260Z,10.03
2018-09-19T08:15:33.977Z,8.00
2018-09-19T08:18:05.741Z,8.13
2018-09-19T08:20:36.014Z,7.45
2018-09-19T08:23:05.848Z,8.38
2018-09-19T08:25:42.091Z,7.35
2018-09-19T08:28:10.850Z,7.45
2018-09-19T08:30:39.497Z,7.33
2018-09-19T08:33:08.169Z,8.18
2018-09-19T08:35:37.660Z,8.30
2018-09-19T08:38:06.990Z,7.08
2018-09-19T08:40:35.632Z,7.28
2018-09-19T08:43:04.401Z,7.05
2018-09-19T08:45:33.259Z,6.85
2018-09-19T08:48:01.946Z,6.30
2018-09-19T08:50:31.407Z,6.10
2018-09-19T08:53:01.385Z,5.65
2018-09-19T08:55:30.024Z,5.58
2018-09-19T08:57:58.964Z,6.03
2018-09-19T09:00:27.583Z,6.75
2018-09-19T09:02:56.300Z,7.10
2018-09-19T09:05:26.392Z,8.48
2018-09-19T09:07:55.006Z,8.23
2018-09-19T09:10:25.872Z,7.28
2018-09-19T09:12:54.479Z,7.87
2018-09-19T09:15:23.309Z,7.33
2018-09-19T09:17:52.224Z,6.08
2018-09-19T09:20:20.835Z,6.42
2018-09-19T09:22:50.126Z,5.92
2018-09-19T09:25:18.760Z,5.45
2018-09-19T09:27:47.407Z,5.50
2018-09-19T09:30:16.076Z,5.08
2018-09-19T09:32:44.692Z,5.72
2018-09-19T09:35:13.324Z,5.83
2018-09-19T09:37:42.028Z,5.72
2018-09-19T09:40:10.635Z,4.10
2018-09-19T09:42:39.225Z,5.22
2018-09-19T09:45:07.931Z,4.25
2018-09-19T09:47:36.641Z,4.67
2018-09-19T09:50:05.808Z,5.28
2018-09-19T09:52:34.519Z,4.60
2018-09-19T09:55:03.213Z,4.87
2018-09-19T09:57:31.948Z,4.60
2018-09-19T10:00:00.639Z,4.15
2018-09-19T10:02:30.355Z,4.12
2018-09-19T10:04:59.012Z,6.45
2018-09-19T10:07:27.639Z,4.75
2018-09-19T10:09:56.391Z,3.95
2018-09-19T10:12:24.995Z,4.95
2018-09-19T10:14:54.376Z,4.42
2018-09-19T10:17:23.089Z,5.00
2018-09-19T10:19:51.739Z,4.75
2018-09-19T10:22:20.523Z,5.53
2018-09-19T10:24:49.305Z,5.17
2018-09-19T10:27:18.911Z,4.20
2018-09-19T10:29:47.516Z,4.70
2018-09-19T10:32:16.151Z,4.95
2018-09-19T10:34:44.836Z,4.70
2018-09-19T10:37:13.740Z,4.87
2018-09-19T10:39:42.383Z,4.10
2018-09-19T10:42:11.375Z,4.83
2018-09-19T10:44:40.012Z,5.22
2018-09-19T10:47:08.665Z,4.65
2018-09-19T10:49:37.409Z,4.78
2018-09-19T10:52:06.083Z,5.28
2018-09-19T10:54:34.752Z,4.87
2018-09-19T10:57:03.990Z,6.83
2018-09-19T10:59:32.635Z,6.83
2018-09-19T11:02:01.832Z,6.95
2018-09-19T11:04:30.441Z,8.80
2018-09-19T11:06:59.140Z,8.70
2018-09-19T11:09:32.939Z,9.08
2018-09-19T11:12:09.744Z,9.53
2018-09-19T11:14:38.768Z,8.20
2018-09-19T11:17:07.449Z,8.40
2018-09-19T11:19:36.083Z,10.03
2018-09-19T11:22:04.699Z,8.95
2018-09-19T11:24:33.350Z,10.28
2018-09-19T11:27:06.575Z,9.90
2018-09-19T11:29:39.915Z,9.10
2018-09-19T11:32:09.227Z,9.95
2018-09-19T11:34:42.151Z,10.80
2018-09-19T11:37:10.759Z,10.98
2018-09-19T11:39:39.378Z,10.78
2018-09-19T11:42:08.040Z,10.43
2018-09-19T11:44:36.644Z,10.60
2018-09-19T11:47:05.612Z,10.98
2018-09-19T11:49:34.268Z,13.03
2018-09-19T11:52:02.955Z,11.68
2018-09-19T11:54:31.559Z,11.25
2018-09-19T11:57:00.237Z,10.53
2018-09-19T11:59:30.388Z,12.73
2018-09-19T12:01:59.690Z,13.98
2018-09-19T12:04:30.751Z,12.18
2018-09-19T12:07:30.824Z,12.03
2018-09-19T12:09:59.820Z,10.65
2018-09-19T12:12:32.911Z,11.10
2018-09-19T12:15:05.214Z,11.28
2018-09-19T12:17:35.972Z,10.90
2018-09-19T12:20:07.771Z,9.70
2018-09-19T12:22:38.045Z,9.55
2018-09-19T12:25:07.750Z,9.83
2018-09-19T12:27:36.384Z,8.73
2018-09-19T12:30:06.750Z,8.55
2018-09-19T12:32:36.716Z,7.80
2018-09-19T12:35:06.158Z,8.90
2018-09-19T12:37:35.159Z,8.05
2018-09-19T12:40:03.926Z,8.00
2018-09-19T12:42:34.334Z,7.87
2018-09-19T12:45:04.095Z,8.00
2018-09-19T12:47:32.783Z,8.58
2018-09-19T12:50:07.999Z,7.42
2018-09-19T12:52:36.620Z,7.37
2018-09-19T12:55:07.515Z,6.80
2018-09-19T12:57:37.473Z,7.95
2018-09-19T13:00:06.352Z,6.95
2018-09-19T13:02:35.116Z,8.08
2018-09-19T13:05:03.799Z,6.58
2018-09-19T13:07:32.395Z,7.80
2018-09-19T13:10:01.884Z,7.87
2018-09-19T13:12:30.549Z,7.62
2018-09-19T13:15:04.064Z,7.58
2018-09-19T13:17:32.920Z,7.12
2018-09-19T13:20:03.216Z,7.20
2018-09-19T13:22:33.239Z,7.50
2018-09-19T13:25:03.058Z,11.15
2018-09-19T13:27:34.069Z,6.47
2018-09-19T13:30:08.754Z,7.10
2018-09-19T13:32:41.938Z,6.72
2018-09-19T13:35:13.525Z,6.80
2018-09-19T13:37:43.221Z,6.85
2018-09-19T13:40:14.561Z,7.20
2018-09-19T13:42:46.453Z,6.72
2018-09-19T13:45:16.603Z,6.60
2018-09-19T13:47:45.260Z,6.03
2018-09-19T13:50:20.253Z,6.12
2018-09-19T13:52:49.068Z,6.50
2018-09-19T13:55:18.033Z,6.00
2018-09-19T13:57:46.668Z,5.55
2018-09-19T14:00:20.266Z,5.58
2018-09-19T14:02:49.011Z,5.20
2018-09-19T14:05:22.061Z,4.67
2018-09-19T14:07:51.767Z,5.58
2018-09-19T14:10:20.660Z,5.12
2018-09-19T14:15:26.884Z,5.15
2018-09-19T14:17:55.574Z,5.30
2018-09-19T14:20:24.171Z,4.85
2018-09-19T14:22:52.852Z,5.10
2018-09-19T14:25:21.461Z,4.80
2018-09-19T14:27:51.190Z,5.25
2018-09-19T14:30:19.902Z,5.53
2018-09-19T14:32:48.567Z,5.08
2018-09-19T14:35:17.219Z,5.20
2018-09-19T14:37:45.872Z,5.22
2018-09-19T14:40:14.476Z,4.85
2018-09-19T14:42:43.091Z,4.83
2018-09-19T14:45:11.879Z,6.20
2018-09-19T14:47:40.480Z,4.85
2018-09-19T14:50:09.136Z,5.55
2018-09-19T14:52:37.760Z,6.00
2018-09-19T14:55:06.428Z,4.92
2018-09-19T14:57:35.847Z,5.47
2018-09-19T15:00:04.758Z,4.75
2018-09-19T15:02:33.452Z,4.65
2018-09-19T15:05:02.202Z,5.20
2018-09-19T15:07:30.873Z,5.10
2018-09-19T15:10:00.459Z,5.80
2018-09-19T15:12:29.652Z,5.17
2018-09-19T15:14:58.483Z,5.75
2018-09-19T15:17:27.110Z,5.83
2018-09-19T15:19:55.715Z,5.35
2018-09-19T15:22:25.151Z,5.53
2018-09-19T15:24:53.811Z,5.50
2018-09-19T15:27:22.665Z,4.60
2018-09-19T15:29:51.310Z,5.45
2018-09-19T15:32:19.943Z,5.20
2018-09-19T15:34:49.572Z,5.67
2018-09-19T15:37:18.203Z,5.45
2018-09-19T15:39:46.840Z,5.90
2018-09-19T15:42:15.760Z,5.35
2018-09-19T15:44:44.366Z,5.58
2018-09-19T15:47:13.008Z,5.53
2018-09-19T15:49:41.643Z,5.47
2018-09-19T15:52:10.412Z,5.92
2018-09-19T15:54:40.718Z,5.10
2018-09-19T15:57:09.441Z,4.90
2018-09-19T15:59:38.980Z,5.17
2018-09-19T16:02:07.667Z,3.62
2018-09-19T16:04:36.311Z,3.65
2018-09-19T16:07:05.071Z,5.00
2018-09-19T16:09:33.830Z,3.65
2018-09-19T16:12:03.298Z,3.77
2018-09-19T16:14:32.012Z,4.17
2018-09-19T16:17:00.661Z,3.90
2018-09-19T16:19:29.307Z,3.77
2018-09-19T16:21:57.981Z,4.67
2018-09-19T16:24:28.024Z,4.08
2018-09-19T16:26:56.658Z,4.00
2018-09-19T16:29:25.364Z,4.62
2018-09-19T16:31:54.044Z,4.10
2018-09-19T16:34:23.303Z,4.45
2018-09-19T16:36:53.667Z,4.87
2018-09-19T16:39:22.264Z,5.17
2018-09-19T16:41:50.972Z,5.15
2018-09-19T16:44:19.764Z,4.62
2018-09-19T16:46:51.917Z,4.58
2018-09-19T16:49:20.691Z,5.00
2018-09-19T16:51:56.797Z,5.47
2018-09-19T16:54:29.259Z,5.08
2018-09-19T16:56:59.331Z,6.05
2018-09-19T16:59:31.542Z,6.62
2018-09-19T17:02:02.132Z,6.22
2018-09-19T17:04:32.589Z,6.30
2018-09-19T17:07:02.811Z,7.03
2018-09-19T17:09:31.604Z,7.03
2018-09-19T17:12:00.751Z,6.62
2018-09-19T17:14:29.513Z,6.60
2018-09-19T17:16:58.179Z,7.00
2018-09-19T17:19:27.739Z,8.28
2018-09-19T17:21:56.395Z,6.85
2018-09-19T17:24:35.790Z,6.62
2018-09-19T17:27:05.035Z,5.85
2018-09-19T17:29:37.507Z,6.03
2018-09-19T17:32:08.280Z,6.00
2018-09-19T17:34:37.518Z,6.10
2018-09-19T17:37:06.223Z,6.05
2018-09-19T17:39:36.575Z,5.60
2018-09-19T17:42:06.522Z,5.53
2018-09-19T17:44:35.216Z,6.10
2018-09-19T17:47:05.222Z,6.72
2018-09-19T17:49:33.828Z,7.08
2018-09-19T17:52:02.489Z,6.37
2018-09-19T17:54:31.542Z,6.05
2018-09-19T17:57:00.223Z,6.58
2018-09-19T17:59:28.908Z,6.97
2018-09-19T18:01:57.544Z,6.62
2018-09-19T18:04:26.328Z,6.42
2018-09-19T18:06:55.019Z,6.30
2018-09-19T18:09:24.036Z,7.05
2018-09-19T18:11:52.692Z,6.85
2018-09-19T18:14:21.395Z,7.40
2018-09-19T18:16:49.999Z,7.40
2018-09-19T18:19:18.649Z,6.80
2018-09-19T18:21:47.383Z,6.40
2018-09-19T18:24:16.335Z,6.17
2018-09-19T18:26:45.919Z,7.08
2018-09-19T18:29:14.592Z,6.47
2018-09-19T18:31:43.992Z,8.03
2018-09-19T18:34:16.732Z,8.58
2018-09-19T18:36:47.691Z,8.70
2018-09-19T18:39:22.184Z,8.03
2018-09-19T18:41:50.888Z,7.85
2018-09-19T18:44:20.964Z,8.35
2018-09-19T18:46:50.084Z,7.17
2018-09-19T18:49:18.936Z,7.10
2018-09-19T18:51:48.015Z,7.67
2018-09-19T18:54:20.591Z,8.38
2018-09-19T18:56:49.419Z,8.73
2018-09-19T18:59:18.063Z,8.95
2018-09-19T19:01:53.076Z,9.85
2018-09-19T19:04:21.843Z,7.78
2018-09-19T19:06:50.655Z,9.93
2018-09-19T19:09:19.344Z,10.60
2018-09-19T19:11:48.247Z,9.70
2018-09-19T19:14:17.164Z,9.08
2018-09-19T19:16:46.017Z,10.28
2018-09-19T19:19:14.799Z,11.60
2018-09-19T19:21:47.034Z,10.43
2018-09-19T19:24:15.820Z,12.23
2018-09-19T19:26:45.628Z,12.03
2018-09-19T19:29:16.195Z,11.88
2018-09-19T19:31:45.933Z,10.82
2018-09-19T19:34:16.620Z,11.70
2018-09-19T19:36:47.412Z,11.30
2018-09-19T19:39:16.421Z,10.63
2018-09-19T19:41:45.489Z,11.22
2018-09-19T19:44:14.481Z,9.97
2018-09-19T19:46:43.721Z,9.13
2018-09-19T19:49:12.818Z,11.05
2018-09-19T19:51:42.646Z,10.53
2018-09-19T19:54:16.804Z,9.98
2018-09-19T19:56:45.976Z,10.65
2018-09-19T19:59:17.147Z,10.05
2018-09-19T20:01:46.547Z,10.10
2018-09-19T20:04:15.445Z,9.58
2018-09-19T20:06:44.402Z,9.00
2018-09-19T20:09:13.737Z,9.00
2018-09-19T20:11:43.170Z,9.88
2018-09-19T20:14:12.694Z,8.85
2018-09-19T20:16:42.396Z,9.45
2018-09-19T20:19:11.177Z,8.60
2018-09-19T20:21:40.656Z,9.05
2018-09-19T20:24:09.386Z,8.30
2018-09-19T20:26:39.428Z,8.50
2018-09-19T20:29:10.139Z,9.50
2018-09-19T20:31:39.212Z,9.88
2018-09-19T20:34:09.591Z,10.05
2018-09-19T20:36:39.091Z,8.23
2018-09-19T20:39:11.299Z,9.15
2018-09-19T20:41:41.296Z,9.55
2018-09-19T20:44:15.543Z,9.43
2018-09-19T20:46:44.903Z,9.85
2018-09-19T20:49:15.521Z,8.78
2018-09-19T20:51:45.363Z,11.12
2018-09-19T20:54:14.100Z,12.13
2018-09-19T20:56:47.135Z,10.23
2018-09-19T20:59:16.108Z,13.40
2018-09-19T21:01:44.739Z,13.33
2018-09-19T21:04:13.688Z,13.75
2018-09-19T21:06:43.087Z,11.95
2018-09-19T21:09:11.727Z,10.53
2018-09-19T21:11:40.861Z,12.80
2018-09-19T21:14:09.680Z,12.40
2018-09-19T21:16:38.968Z,11.53
2018-09-19T21:19:13.527Z,12.00
2018-09-19T21:21:44.365Z,11.97
2018-09-19T21:24:18.415Z,12.00
2018-09-19T21:26:50.204Z,12.28
2018-09-19T21:29:20.656Z,11.43
2018-09-19T21:31:49.484Z,12.10
2018-09-19T21:34:18.219Z,11.30
2018-09-19T21:36:47.004Z,11.93
2018-09-19T21:39:21.171Z,12.75
2018-09-19T21:41:49.856Z,12.53
2018-09-19T21:44:21.493Z,14.05
2018-09-19T21:46:50.254Z,15.23
2018-09-19T21:49:18.909Z,16.57
2018-09-19T21:51:49.144Z,15.38
2018-09-19T21:54:18.719Z,14.17
2018-09-19T21:56:52.474Z,14.85
2018-09-19T21:59:22.818Z,14.38
2018-09-19T22:01:56.819Z,14.87
2018-09-19T22:04:25.484Z,15.70
2018-09-19T22:06:54.589Z,15.63
2018-09-19T22:09:26.628Z,15.03
2018-09-19T22:12:02.720Z,14.70
2018-09-19T22:14:34.024Z,15.00
2018-09-19T22:17:02.615Z,14.55
2018-09-19T22:19:31.283Z,14.68
2018-09-19T22:21:59.875Z,14.43
2018-09-19T22:24:28.508Z,14.65
2018-09-19T22:26:58.007Z,15.53
2018-09-19T22:29:26.691Z,13.98
2018-09-19T22:31:55.341Z,15.18
2018-09-19T22:34:24.836Z,15.70
2018-09-19T22:36:53.432Z,14.47
2018-09-19T22:39:22.119Z,14.83
2018-09-19T22:41:50.800Z,14.70
2018-09-19T22:44:19.578Z,13.95
2018-09-19T22:46:48.197Z,14.80
2018-09-19T22:49:16.879Z,15.33
2018-09-19T22:51:45.765Z,15.00
2018-09-19T22:54:14.398Z,14.98
2018-09-19T22:56:43.028Z,15.00
2018-09-19T22:59:11.664Z,14.90
2018-09-19T23:01:40.261Z,15.88
2018-09-19T23:04:08.967Z,15.63
2018-09-19T23:06:37.703Z,15.70
2018-09-19T23:09:07.691Z,15.60
2018-09-19T23:11:36.303Z,15.15
2018-09-19T23:14:04.952Z,16.47
2018-09-19T23:16:33.588Z,16.77
2018-09-19T23:19:02.295Z,18.20
2018-09-19T23:21:30.906Z,17.37
2018-09-19T23:23:59.526Z,17.17
2018-09-19T23:26:28.183Z,17.27
2018-09-19T23:28:56.771Z,15.48
2018-09-19T23:31:25.365Z,15.10
2018-09-19T23:33:54.020Z,14.30
2018-09-19T23:36:23.228Z,14.37
2018-09-19T23:38:52.000Z,13.60
2018-09-19T23:41:20.680Z,14.63
2018-09-19T23:43:49.372Z,14.03
2018-09-19T23:46:17.995Z,13.30
2018-09-19T23:48:47.808Z,14.60
2018-09-19T23:51:16.407Z,13.53
2018-09-19T23:53:45.003Z,13.90
2018-09-19T23:56:13.617Z,13.98
2018-09-19T23:58:42.243Z,13.67
